Terminal Aerodrome Forecast
Issued by NWS Sterling, VA

Home | Current Version | Previous Version | Text Only | Print | Product List | Glossary On
Versions: 1 2 3 4 5 6 7 8 9 10 11 12 13 14 15 16 17 18 19 20 21
747
FTUS41 KLWX 222050 AAA
TAFBWI
TAF AMD
KBWI 222050Z 2221/2324 14007KT P6SM FEW250
     FM230500 VRB03KT P6SM BKN250
     FM230900 13004KT 2SM BR BKN250
     FM231300 14004KT 3SM BR BKN045
     FM231400 14005KT P6SM BKN060
     FM231700 15009KT P6SM BKN045=

USA.gov is the U.S. government's official web portal to all federal, state and local government web resources and services.